sensor_id;sensor_type;location;lat;lon;timestamp;P1;durP1;ratioP1;P2;durP2;ratioP2
10947;SDS011;5526;42.070;24.752;2023-08-20T00:01:05;7.75;;;7.15;;
10947;SDS011;5526;42.070;24.752;2023-08-20T00:03:35;7.60;;;7.00;;
10947;SDS011;5526;42.070;24.752;2023-08-20T00:06:02;8.10;;;7.40;;
10947;SDS011;5526;42.070;24.752;2023-08-20T00:08:30;7.90;;;7.07;;
10947;SDS011;5526;42.070;24.752;2023-08-20T00:10:57;7.40;;;6.70;;
10947;SDS011;5526;42.070;24.752;2023-08-20T00:13:24;6.80;;;6.30;;
10947;SDS011;5526;42.070;24.752;2023-08-20T00:15:51;7.78;;;7.13;;
10947;SDS011;5526;42.070;24.752;2023-08-20T00:18:20;7.40;;;6.65;;
10947;SDS011;5526;42.070;24.752;2023-08-20T00:20:48;7.10;;;6.50;;
10947;SDS011;5526;42.070;24.752;2023-08-20T00:23:16;6.88;;;6.28;;
10947;SDS011;5526;42.070;24.752;2023-08-20T00:25:43;6.88;;;6.30;;
10947;SDS011;5526;42.070;24.752;2023-08-20T00:28:11;6.38;;;5.78;;
10947;SDS011;5526;42.070;24.752;2023-08-20T00:30:38;6.22;;;5.72;;
10947;SDS011;5526;42.070;24.752;2023-08-20T00:33:05;6.70;;;5.88;;
10947;SDS011;5526;42.070;24.752;2023-08-20T00:35:34;7.82;;;7.13;;
10947;SDS011;5526;42.070;24.752;2023-08-20T00:38:01;7.53;;;7.03;;
10947;SDS011;5526;42.070;24.752;2023-08-20T00:40:28;8.05;;;7.45;;
10947;SDS011;5526;42.070;24.752;2023-08-20T00:42:56;7.85;;;7.07;;
10947;SDS011;5526;42.070;24.752;2023-08-20T00:45:24;7.93;;;7.43;;
10947;SDS011;5526;42.070;24.752;2023-08-20T00:47:51;7.40;;;6.80;;
10947;SDS011;5526;42.070;24.752;2023-08-20T00:50:18;7.72;;;7.10;;
10947;SDS011;5526;42.070;24.752;2023-08-20T00:52:47;7.22;;;6.63;;
10947;SDS011;5526;42.070;24.752;2023-08-20T00:55:14;8.10;;;7.43;;
10947;SDS011;5526;42.070;24.752;2023-08-20T00:57:42;7.75;;;7.15;;
10947;SDS011;5526;42.070;24.752;2023-08-20T01:00:10;8.18;;;7.53;;
10947;SDS011;5526;42.070;24.752;2023-08-20T01:02:38;7.85;;;7.30;;
10947;SDS011;5526;42.070;24.752;2023-08-20T01:05:05;8.05;;;7.45;;
10947;SDS011;5526;42.070;24.752;2023-08-20T01:07:39;8.00;;;7.28;;
10947;SDS011;5526;42.070;24.752;2023-08-20T01:10:25;8.45;;;7.85;;
10947;SDS011;5526;42.070;24.752;2023-08-20T01:13:00;8.40;;;7.80;;
10947;SDS011;5526;42.070;24.752;2023-08-20T01:15:29;8.60;;;8.00;;
10947;SDS011;5526;42.070;24.752;2023-08-20T01:17:56;8.73;;;8.13;;
10947;SDS011;5526;42.070;24.752;2023-08-20T01:20:27;9.35;;;8.60;;
10947;SDS011;5526;42.070;24.752;2023-08-20T01:23:15;9.73;;;8.90;;
10947;SDS011;5526;42.070;24.752;2023-08-20T01:26:01;10.35;;;9.35;;
10947;SDS011;5526;42.070;24.752;2023-08-20T01:28:49;11.45;;;9.27;;
10947;SDS011;5526;42.070;24.752;2023-08-20T01:31:16;10.38;;;9.25;;
10947;SDS011;5526;42.070;24.752;2023-08-20T01:33:44;8.90;;;8.10;;
10947;SDS011;5526;42.070;24.752;2023-08-20T01:36:12;8.30;;;7.70;;
10947;SDS011;5526;42.070;24.752;2023-08-20T01:38:39;11.00;;;8.85;;
10947;SDS011;5526;42.070;24.752;2023-08-20T01:41:06;9.20;;;8.40;;
10947;SDS011;5526;42.070;24.752;2023-08-20T01:43:32;8.90;;;8.10;;
10947;SDS011;5526;42.070;24.752;2023-08-20T01:46:01;7.75;;;7.10;;
10947;SDS011;5526;42.070;24.752;2023-08-20T01:48:27;7.55;;;6.95;;
10947;SDS011;5526;42.070;24.752;2023-08-20T01:50:55;7.80;;;7.22;;
10947;SDS011;5526;42.070;24.752;2023-08-20T01:53:22;8.05;;;7.45;;
10947;SDS011;5526;42.070;24.752;2023-08-20T01:55:49;7.72;;;7.03;;
10947;SDS011;5526;42.070;24.752;2023-08-20T01:58:16;8.73;;;7.90;;
10947;SDS011;5526;42.070;24.752;2023-08-20T02:00:44;9.02;;;8.23;;
10947;SDS011;5526;42.070;24.752;2023-08-20T02:03:13;8.60;;;7.78;;
10947;SDS011;5526;42.070;24.752;2023-08-20T02:05:40;7.95;;;7.20;;
10947;SDS011;5526;42.070;24.752;2023-08-20T02:08:07;7.60;;;7.00;;
10947;SDS011;5526;42.070;24.752;2023-08-20T02:10:34;8.18;;;7.47;;
10947;SDS011;5526;42.070;24.752;2023-08-20T02:13:02;7.57;;;6.88;;
10947;SDS011;5526;42.070;24.752;2023-08-20T02:15:30;7.60;;;6.75;;
10947;SDS011;5526;42.070;24.752;2023-08-20T02:17:57;7.40;;;6.72;;
10947;SDS011;5526;42.070;24.752;2023-08-20T02:20:27;7.25;;;6.65;;
10947;SDS011;5526;42.070;24.752;2023-08-20T02:22:54;7.55;;;6.88;;
10947;SDS011;5526;42.070;24.752;2023-08-20T02:25:22;8.18;;;7.38;;
10947;SDS011;5526;42.070;24.752;2023-08-20T02:27:49;7.50;;;6.82;;
10947;SDS011;5526;42.070;24.752;2023-08-20T02:30:16;9.23;;;7.50;;
10947;SDS011;5526;42.070;24.752;2023-08-20T02:32:44;7.30;;;6.80;;
10947;SDS011;5526;42.070;24.752;2023-08-20T02:35:11;7.78;;;7.18;;
10947;SDS011;5526;42.070;24.752;2023-08-20T02:37:42;7.85;;;7.15;;
10947;SDS011;5526;42.070;24.752;2023-08-20T02:40:09;8.00;;;7.32;;
10947;SDS011;5526;42.070;24.752;2023-08-20T02:42:38;7.30;;;6.70;;
10947;SDS011;5526;42.070;24.752;2023-08-20T02:45:06;7.88;;;7.28;;
10947;SDS011;5526;42.070;24.752;2023-08-20T02:47:33;9.30;;;7.60;;
10947;SDS011;5526;42.070;24.752;2023-08-20T02:50:00;8.50;;;7.60;;
10947;SDS011;5526;42.070;24.752;2023-08-20T02:52:27;8.18;;;7.43;;
10947;SDS011;5526;42.070;24.752;2023-08-20T02:54:56;7.95;;;7.32;;
10947;SDS011;5526;42.070;24.752;2023-08-20T02:57:23;7.38;;;6.85;;
10947;SDS011;5526;42.070;24.752;2023-08-20T02:59:51;8.05;;;7.35;;
10947;SDS011;5526;42.070;24.752;2023-08-20T03:02:18;7.57;;;6.95;;
10947;SDS011;5526;42.070;24.752;2023-08-20T03:04:45;7.53;;;7.03;;
10947;SDS011;5526;42.070;24.752;2023-08-20T03:07:12;8.07;;;7.38;;
10947;SDS011;5526;42.070;24.752;2023-08-20T03:09:39;7.35;;;6.75;;
10947;SDS011;5526;42.070;24.752;2023-08-20T03:12:08;8.00;;;7.30;;
10947;SDS011;5526;42.070;24.752;2023-08-20T03:14:35;7.80;;;7.10;;
10947;SDS011;5526;42.070;24.752;2023-08-20T03:17:02;7.78;;;7.03;;
10947;SDS011;5526;42.070;24.752;2023-08-20T03:19:32;8.10;;;7.40;;
10947;SDS011;5526;42.070;24.752;2023-08-20T03:22:00;8.60;;;7.47;;
10947;SDS011;5526;42.070;24.752;2023-08-20T03:24:27;8.43;;;7.60;;
10947;SDS011;5526;42.070;24.752;2023-08-20T03:26:54;10.68;;;7.65;;
10947;SDS011;5526;42.070;24.752;2023-08-20T03:29:22;8.20;;;7.40;;
10947;SDS011;5526;42.070;24.752;2023-08-20T03:31:49;11.70;;;8.50;;
10947;SDS011;5526;42.070;24.752;2023-08-20T03:34:16;8.10;;;7.50;;
10947;SDS011;5526;42.070;24.752;2023-08-20T03:36:43;8.57;;;7.75;;
10947;SDS011;5526;42.070;24.752;2023-08-20T03:39:10;9.13;;;8.13;;
10947;SDS011;5526;42.070;24.752;2023-08-20T03:41:38;8.70;;;7.78;;
10947;SDS011;5526;42.070;24.752;2023-08-20T03:44:05;8.30;;;7.53;;
10947;SDS011;5526;42.070;24.752;2023-08-20T03:46:33;7.40;;;6.90;;
10947;SDS011;5526;42.070;24.752;2023-08-20T03:49:00;7.60;;;6.93;;
10947;SDS011;5526;42.070;24.752;2023-08-20T03:51:28;7.60;;;7.00;;
10947;SDS011;5526;42.070;24.752;2023-08-20T03:53:55;7.68;;;7.10;;
10947;SDS011;5526;42.070;24.752;2023-08-20T03:56:22;7.90;;;7.20;;
10947;SDS011;5526;42.070;24.752;2023-08-20T03:58:49;7.80;;;7.20;;
10947;SDS011;5526;42.070;24.752;2023-08-20T04:01:16;7.57;;;6.97;;
10947;SDS011;5526;42.070;24.752;2023-08-20T04:03:44;7.82;;;7.28;;
10947;SDS011;5526;42.070;24.752;2023-08-20T04:06:12;7.50;;;6.90;;
10947;SDS011;5526;42.070;24.752;2023-08-20T04:08:39;7.97;;;7.43;;
10947;SDS011;5526;42.070;24.752;2023-08-20T04:11:06;7.97;;;7.43;;
10947;SDS011;5526;42.070;24.752;2023-08-20T04:13:33;7.93;;;7.22;;
10947;SDS011;5526;42.070;24.752;2023-08-20T04:16:00;8.10;;;7.40;;
10947;SDS011;5526;42.070;24.752;2023-08-20T04:18:27;8.48;;;7.78;;
10947;SDS011;5526;42.070;24.752;2023-08-20T04:20:56;8.98;;;7.80;;
10947;SDS011;5526;42.070;24.752;2023-08-20T04:23:23;7.63;;;7.05;;
10947;SDS011;5526;42.070;24.752;2023-08-20T04:25:50;8.07;;;7.57;;
10947;SDS011;5526;42.070;24.752;2023-08-20T04:28:17;8.00;;;7.40;;
10947;SDS011;5526;42.070;24.752;2023-08-20T04:30:44;7.90;;;7.28;;
10947;SDS011;5526;42.070;24.752;2023-08-20T04:33:11;7.95;;;7.25;;
10947;SDS011;5526;42.070;24.752;2023-08-20T04:35:38;7.13;;;6.70;;
10947;SDS011;5526;42.070;24.752;2023-08-20T04:38:07;7.70;;;7.10;;
10947;SDS011;5526;42.070;24.752;2023-08-20T04:40:34;7.53;;;6.82;;
10947;SDS011;5526;42.070;24.752;2023-08-20T04:43:01;7.32;;;6.72;;
10947;SDS011;5526;42.070;24.752;2023-08-20T04:45:28;7.45;;;6.85;;
10947;SDS011;5526;42.070;24.752;2023-08-20T04:47:55;7.55;;;7.03;;
10947;SDS011;5526;42.070;24.752;2023-08-20T04:50:22;7.85;;;7.05;;
10947;SDS011;5526;42.070;24.752;2023-08-20T04:52:49;7.88;;;6.82;;
10947;SDS011;5526;42.070;24.752;2023-08-20T04:55:18;9.63;;;7.65;;
10947;SDS011;5526;42.070;24.752;2023-08-20T04:57:45;7.95;;;7.30;;
10947;SDS011;5526;42.070;24.752;2023-08-20T05:00:12;8.20;;;7.50;;
10947;SDS011;5526;42.070;24.752;2023-08-20T05:02:41;8.68;;;7.97;;
10947;SDS011;5526;42.070;24.752;2023-08-20T05:05:08;8.80;;;8.00;;
10947;SDS011;5526;42.070;24.752;2023-08-20T05:07:35;9.75;;;8.00;;
10947;SDS011;5526;42.070;24.752;2023-08-20T05:10:02;8.38;;;7.65;;
10947;SDS011;5526;42.070;24.752;2023-08-20T05:12:31;9.65;;;8.00;;
10947;SDS011;5526;42.070;24.752;2023-08-20T05:14:58;9.77;;;8.80;;
10947;SDS011;5526;42.070;24.752;2023-08-20T05:17:25;8.68;;;7.75;;
10947;SDS011;5526;42.070;24.752;2023-08-20T05:19:52;8.98;;;8.30;;
10947;SDS011;5526;42.070;24.752;2023-08-20T05:22:19;9.05;;;8.18;;
10947;SDS011;5526;42.070;24.752;2023-08-20T05:24:46;8.00;;;7.32;;
10947;SDS011;5526;42.070;24.752;2023-08-20T05:27:14;8.45;;;7.68;;
10947;SDS011;5526;42.070;24.752;2023-08-20T05:29:43;8.65;;;7.82;;
10947;SDS011;5526;42.070;24.752;2023-08-20T05:32:11;8.25;;;7.55;;
10947;SDS011;5526;42.070;24.752;2023-08-20T05:34:38;8.40;;;7.88;;
10947;SDS011;5526;42.070;24.752;2023-08-20T05:37:05;8.15;;;7.55;;
10947;SDS011;5526;42.070;24.752;2023-08-20T05:39:36;8.45;;;7.93;;
10947;SDS011;5526;42.070;24.752;2023-08-20T05:42:04;8.23;;;7.57;;
10947;SDS011;5526;42.070;24.752;2023-08-20T05:44:31;8.20;;;7.60;;
10947;SDS011;5526;42.070;24.752;2023-08-20T05:46:59;7.45;;;6.95;;
10947;SDS011;5526;42.070;24.752;2023-08-20T05:49:27;8.38;;;7.63;;
10947;SDS011;5526;42.070;24.752;2023-08-20T05:51:54;8.30;;;7.50;;
10947;SDS011;5526;42.070;24.752;2023-08-20T05:54:21;9.30;;;8.23;;
10947;SDS011;5526;42.070;24.752;2023-08-20T05:56:48;8.48;;;7.88;;
10947;SDS011;5526;42.070;24.752;2023-08-20T05:59:15;9.02;;;8.25;;
10947;SDS011;5526;42.070;24.752;2023-08-20T06:01:42;8.68;;;7.82;;
10947;SDS011;5526;42.070;24.752;2023-08-20T06:04:12;9.55;;;8.65;;
10947;SDS011;5526;42.070;24.752;2023-08-20T06:06:39;9.32;;;8.07;;
10947;SDS011;5526;42.070;24.752;2023-08-20T06:09:06;8.90;;;8.30;;
10947;SDS011;5526;42.070;24.752;2023-08-20T06:11:34;8.88;;;8.07;;
10947;SDS011;5526;42.070;24.752;2023-08-20T06:14:01;8.82;;;8.10;;
10947;SDS011;5526;42.070;24.752;2023-08-20T06:16:28;8.55;;;7.95;;
10947;SDS011;5526;42.070;24.752;2023-08-20T06:18:55;9.13;;;8.30;;
10947;SDS011;5526;42.070;24.752;2023-08-20T06:21:24;9.02;;;8.18;;
10947;SDS011;5526;42.070;24.752;2023-08-20T06:23:51;8.27;;;7.70;;
10947;SDS011;5526;42.070;24.752;2023-08-20T06:26:18;10.98;;;8.20;;
10947;SDS011;5526;42.070;24.752;2023-08-20T06:28:45;9.18;;;8.48;;
10947;SDS011;5526;42.070;24.752;2023-08-20T06:31:12;9.48;;;8.70;;
10947;SDS011;5526;42.070;24.752;2023-08-20T06:33:39;8.80;;;8.00;;
10947;SDS011;5526;42.070;24.752;2023-08-20T06:36:06;8.80;;;7.93;;
10947;SDS011;5526;42.070;24.752;2023-08-20T06:38:35;8.63;;;7.82;;
10947;SDS011;5526;42.070;24.752;2023-08-20T06:41:02;9.20;;;8.25;;
10947;SDS011;5526;42.070;24.752;2023-08-20T06:43:29;9.32;;;8.43;;
10947;SDS011;5526;42.070;24.752;2023-08-20T06:45:56;9.73;;;8.85;;
10947;SDS011;5526;42.070;24.752;2023-08-20T06:48:23;9.25;;;8.45;;
10947;SDS011;5526;42.070;24.752;2023-08-20T06:50:51;9.77;;;8.80;;
10947;SDS011;5526;42.070;24.752;2023-08-20T06:53:18;9.02;;;8.23;;
10947;SDS011;5526;42.070;24.752;2023-08-20T06:55:47;11.40;;;8.82;;
10947;SDS011;5526;42.070;24.752;2023-08-20T06:58:14;9.55;;;8.65;;
10947;SDS011;5526;42.070;24.752;2023-08-20T07:00:42;9.10;;;8.25;;
10947;SDS011;5526;42.070;24.752;2023-08-20T07:03:09;8.95;;;8.07;;
10947;SDS011;5526;42.070;24.752;2023-08-20T07:05:36;8.88;;;8.07;;
10947;SDS011;5526;42.070;24.752;2023-08-20T07:08:03;9.20;;;8.50;;
10947;SDS011;5526;42.070;24.752;2023-08-20T07:10:31;10.07;;;9.18;;
10947;SDS011;5526;42.070;24.752;2023-08-20T07:12:59;9.35;;;8.48;;
10947;SDS011;5526;42.070;24.752;2023-08-20T07:15:26;9.65;;;8.85;;
10947;SDS011;5526;42.070;24.752;2023-08-20T07:17:53;9.02;;;8.23;;
10947;SDS011;5526;42.070;24.752;2023-08-20T07:20:20;8.85;;;8.05;;
10947;SDS011;5526;42.070;24.752;2023-08-20T07:22:48;10.00;;;9.05;;
10947;SDS011;5526;42.070;24.752;2023-08-20T07:25:15;9.57;;;8.80;;
10947;SDS011;5526;42.070;24.752;2023-08-20T07:27:42;9.32;;;8.65;;
10947;SDS011;5526;42.070;24.752;2023-08-20T07:30:11;9.15;;;8.43;;
10947;SDS011;5526;42.070;24.752;2023-08-20T07:32:38;8.88;;;7.93;;
10947;SDS011;5526;42.070;24.752;2023-08-20T07:35:06;8.57;;;7.88;;
10947;SDS011;5526;42.070;24.752;2023-08-20T07:37:34;8.90;;;8.15;;
10947;SDS011;5526;42.070;24.752;2023-08-20T07:40:01;9.27;;;8.57;;
10947;SDS011;5526;42.070;24.752;2023-08-20T07:42:28;9.13;;;8.32;;
10947;SDS011;5526;42.070;24.752;2023-08-20T07:44:55;10.60;;;9.80;;
10947;SDS011;5526;42.070;24.752;2023-08-20T07:47:24;10.32;;;9.40;;
10947;SDS011;5526;42.070;24.752;2023-08-20T07:49:51;10.00;;;9.18;;
10947;SDS011;5526;42.070;24.752;2023-08-20T07:52:18;9.57;;;8.73;;
10947;SDS011;5526;42.070;24.752;2023-08-20T07:54:45;10.45;;;9.45;;
10947;SDS011;5526;42.070;24.752;2023-08-20T07:57:12;11.75;;;9.68;;
10947;SDS011;5526;42.070;24.752;2023-08-20T07:59:39;10.68;;;9.68;;
10947;SDS011;5526;42.070;24.752;2023-08-20T08:02:06;9.43;;;8.73;;
10947;SDS011;5526;42.070;24.752;2023-08-20T08:04:35;10.50;;;9.60;;
10947;SDS011;5526;42.070;24.752;2023-08-20T08:07:02;10.48;;;9.48;;
10947;SDS011;5526;42.070;24.752;2023-08-20T08:09:30;9.98;;;9.18;;
10947;SDS011;5526;42.070;24.752;2023-08-20T08:11:58;9.65;;;8.95;;
10947;SDS011;5526;42.070;24.752;2023-08-20T08:14:26;10.00;;;9.20;;
10947;SDS011;5526;42.070;24.752;2023-08-20T08:16:53;10.93;;;10.02;;
10947;SDS011;5526;42.070;24.752;2023-08-20T08:19:21;9.23;;;8.63;;
10947;SDS011;5526;42.070;24.752;2023-08-20T08:21:49;9.70;;;8.90;;
10947;SDS011;5526;42.070;24.752;2023-08-20T08:24:16;8.95;;;8.27;;
10947;SDS011;5526;42.070;24.752;2023-08-20T08:26:44;9.50;;;8.70;;
10947;SDS011;5526;42.070;24.752;2023-08-20T08:29:11;8.75;;;8.10;;
10947;SDS011;5526;42.070;24.752;2023-08-20T08:31:38;8.23;;;7.57;;
10947;SDS011;5526;42.070;24.752;2023-08-20T08:34:05;8.18;;;7.60;;
10947;SDS011;5526;42.070;24.752;2023-08-20T08:36:32;7.22;;;6.82;;
10947;SDS011;5526;42.070;24.752;2023-08-20T08:39:00;8.25;;;7.55;;
10947;SDS011;5526;42.070;24.752;2023-08-20T08:41:27;8.15;;;7.47;;
10947;SDS011;5526;42.070;24.752;2023-08-20T08:43:56;7.57;;;7.07;;
10947;SDS011;5526;42.070;24.752;2023-08-20T08:46:24;7.05;;;6.40;;
10947;SDS011;5526;42.070;24.752;2023-08-20T08:48:52;7.78;;;7.20;;
10947;SDS011;5526;42.070;24.752;2023-08-20T08:51:19;7.78;;;7.20;;
10947;SDS011;5526;42.070;24.752;2023-08-20T08:53:46;7.20;;;6.70;;
10947;SDS011;5526;42.070;24.752;2023-08-20T08:56:15;7.38;;;6.72;;
10947;SDS011;5526;42.070;24.752;2023-08-20T08:58:43;6.97;;;6.45;;
10947;SDS011;5526;42.070;24.752;2023-08-20T09:01:10;7.05;;;6.55;;
10947;SDS011;5526;42.070;24.752;2023-08-20T09:03:37;7.22;;;6.72;;
10947;SDS011;5526;42.070;24.752;2023-08-20T09:06:07;7.40;;;6.85;;
10947;SDS011;5526;42.070;24.752;2023-08-20T09:08:35;6.82;;;6.05;;
10947;SDS011;5526;42.070;24.752;2023-08-20T09:11:03;6.72;;;6.22;;
10947;SDS011;5526;42.070;24.752;2023-08-20T09:13:34;6.47;;;6.05;;
10947;SDS011;5526;42.070;24.752;2023-08-20T09:16:05;6.93;;;6.43;;
10947;SDS011;5526;42.070;24.752;2023-08-20T09:18:33;6.90;;;6.45;;
10947;SDS011;5526;42.070;24.752;2023-08-20T09:21:06;6.50;;;6.00;;
10947;SDS011;5526;42.070;24.752;2023-08-20T09:23:34;6.60;;;6.13;;
10947;SDS011;5526;42.070;24.752;2023-08-20T09:26:02;6.75;;;6.15;;
10947;SDS011;5526;42.070;24.752;2023-08-20T09:28:31;6.60;;;6.10;;
10947;SDS011;5526;42.070;24.752;2023-08-20T09:31:09;6.72;;;6.20;;
10947;SDS011;5526;42.070;24.752;2023-08-20T09:33:36;6.72;;;6.13;;
10947;SDS011;5526;42.070;24.752;2023-08-20T09:36:15;6.65;;;6.05;;
10947;SDS011;5526;42.070;24.752;2023-08-20T09:38:42;6.53;;;6.13;;
10947;SDS011;5526;42.070;24.752;2023-08-20T09:41:09;6.40;;;5.90;;
10947;SDS011;5526;42.070;24.752;2023-08-20T09:43:39;6.20;;;5.80;;
10947;SDS011;5526;42.070;24.752;2023-08-20T09:46:09;6.57;;;6.13;;
10947;SDS011;5526;42.070;24.752;2023-08-20T09:48:38;6.35;;;5.78;;
10947;SDS011;5526;42.070;24.752;2023-08-20T09:51:10;6.10;;;5.60;;
10947;SDS011;5526;42.070;24.752;2023-08-20T09:53:40;6.25;;;5.70;;
10947;SDS011;5526;42.070;24.752;2023-08-20T09:56:14;6.32;;;5.93;;
10947;SDS011;5526;42.070;24.752;2023-08-20T09:58:47;6.85;;;6.35;;
10947;SDS011;5526;42.070;24.752;2023-08-20T10:01:17;6.47;;;6.10;;
10947;SDS011;5526;42.070;24.752;2023-08-20T10:03:44;6.55;;;6.03;;
10947;SDS011;5526;42.070;24.752;2023-08-20T10:06:12;6.53;;;6.03;;
10947;SDS011;5526;42.070;24.752;2023-08-20T10:08:39;6.95;;;6.32;;
10947;SDS011;5526;42.070;24.752;2023-08-20T10:11:07;6.53;;;6.03;;
10947;SDS011;5526;42.070;24.752;2023-08-20T10:13:34;6.43;;;5.88;;
10947;SDS011;5526;42.070;24.752;2023-08-20T10:16:03;6.25;;;5.72;;
10947;SDS011;5526;42.070;24.752;2023-08-20T10:18:32;6.57;;;6.03;;
10947;SDS011;5526;42.070;24.752;2023-08-20T10:21:01;6.70;;;6.20;;
10947;SDS011;5526;42.070;24.752;2023-08-20T10:23:28;6.30;;;5.80;;
10947;SDS011;5526;42.070;24.752;2023-08-20T10:25:55;6.38;;;5.88;;
10947;SDS011;5526;42.070;24.752;2023-08-20T10:28:34;6.55;;;6.00;;
10947;SDS011;5526;42.070;24.752;2023-08-20T10:31:05;6.65;;;6.20;;
10947;SDS011;5526;42.070;24.752;2023-08-20T10:33:36;6.20;;;5.70;;
10947;SDS011;5526;42.070;24.752;2023-08-20T10:36:08;6.45;;;5.90;;
10947;SDS011;5526;42.070;24.752;2023-08-20T10:38:36;6.72;;;6.25;;
10947;SDS011;5526;42.070;24.752;2023-08-20T10:41:07;6.93;;;6.03;;
10947;SDS011;5526;42.070;24.752;2023-08-20T10:43:35;6.40;;;5.85;;
10947;SDS011;5526;42.070;24.752;2023-08-20T10:46:04;6.88;;;6.13;;
10947;SDS011;5526;42.070;24.752;2023-08-20T10:48:33;7.03;;;6.60;;
10947;SDS011;5526;42.070;24.752;2023-08-20T10:51:12;7.03;;;6.53;;
10947;SDS011;5526;42.070;24.752;2023-08-20T10:53:41;6.47;;;6.00;;
10947;SDS011;5526;42.070;24.752;2023-08-20T10:56:10;6.95;;;6.25;;
10947;SDS011;5526;42.070;24.752;2023-08-20T10:58:40;6.60;;;6.10;;
10947;SDS011;5526;42.070;24.752;2023-08-20T11:01:15;6.40;;;6.10;;
10947;SDS011;5526;42.070;24.752;2023-08-20T11:03:44;6.30;;;6.00;;
10947;SDS011;5526;42.070;24.752;2023-08-20T11:06:15;5.95;;;5.65;;
10947;SDS011;5526;42.070;24.752;2023-08-20T11:08:42;6.50;;;6.10;;
10947;SDS011;5526;42.070;24.752;2023-08-20T11:11:10;6.85;;;6.35;;
10947;SDS011;5526;42.070;24.752;2023-08-20T11:13:38;6.88;;;6.47;;
10947;SDS011;5526;42.070;24.752;2023-08-20T11:16:05;8.73;;;6.43;;
10947;SDS011;5526;42.070;24.752;2023-08-20T11:18:34;6.65;;;6.15;;
10947;SDS011;5526;42.070;24.752;2023-08-20T11:21:01;8.35;;;5.78;;
10947;SDS011;5526;42.070;24.752;2023-08-20T11:23:30;6.28;;;5.80;;
10947;SDS011;5526;42.070;24.752;2023-08-20T11:25:58;6.60;;;6.20;;
10947;SDS011;5526;42.070;24.752;2023-08-20T11:28:25;6.55;;;6.05;;
10947;SDS011;5526;42.070;24.752;2023-08-20T11:30:53;6.63;;;6.15;;
10947;SDS011;5526;42.070;24.752;2023-08-20T11:33:21;5.88;;;5.50;;
10947;SDS011;5526;42.070;24.752;2023-08-20T11:35:49;6.38;;;5.95;;
10947;SDS011;5526;42.070;24.752;2023-08-20T11:38:18;6.28;;;5.85;;
10947;SDS011;5526;42.070;24.752;2023-08-20T11:40:48;5.97;;;5.57;;
10947;SDS011;5526;42.070;24.752;2023-08-20T11:43:15;6.18;;;5.75;;
10947;SDS011;5526;42.070;24.752;2023-08-20T11:45:46;7.25;;;5.90;;
10947;SDS011;5526;42.070;24.752;2023-08-20T11:48:14;6.72;;;6.22;;
10947;SDS011;5526;42.070;24.752;2023-08-20T11:50:42;6.28;;;5.78;;
10947;SDS011;5526;42.070;24.752;2023-08-20T11:53:10;6.53;;;5.90;;
10947;SDS011;5526;42.070;24.752;2023-08-20T11:55:38;6.53;;;6.03;;
10947;SDS011;5526;42.070;24.752;2023-08-20T11:58:10;6.05;;;5.65;;
10947;SDS011;5526;42.070;24.752;2023-08-20T12:00:39;6.65;;;6.05;;
10947;SDS011;5526;42.070;24.752;2023-08-20T12:03:07;6.13;;;5.63;;
10947;SDS011;5526;42.070;24.752;2023-08-20T12:05:36;6.15;;;5.78;;
10947;SDS011;5526;42.070;24.752;2023-08-20T12:08:03;6.22;;;5.63;;
10947;SDS011;5526;42.070;24.752;2023-08-20T12:10:31;6.53;;;6.00;;
10947;SDS011;5526;42.070;24.752;2023-08-20T12:12:59;6.45;;;5.88;;
10947;SDS011;5526;42.070;24.752;2023-08-20T12:15:28;6.93;;;5.72;;
10947;SDS011;5526;42.070;24.752;2023-08-20T12:17:58;6.38;;;5.88;;
10947;SDS011;5526;42.070;24.752;2023-08-20T12:20:28;6.18;;;5.88;;
10947;SDS011;5526;42.070;24.752;2023-08-20T12:23:00;6.53;;;6.00;;
10947;SDS011;5526;42.070;24.752;2023-08-20T12:25:29;6.43;;;5.80;;
10947;SDS011;5526;42.070;24.752;2023-08-20T12:27:57;6.40;;;5.90;;
10947;SDS011;5526;42.070;24.752;2023-08-20T12:30:24;6.72;;;6.32;;
10947;SDS011;5526;42.070;24.752;2023-08-20T12:32:53;6.28;;;5.88;;
10947;SDS011;5526;42.070;24.752;2023-08-20T12:35:20;7.72;;;6.93;;
10947;SDS011;5526;42.070;24.752;2023-08-20T12:37:47;6.90;;;6.50;;
10947;SDS011;5526;42.070;24.752;2023-08-20T12:40:14;6.22;;;5.88;;
10947;SDS011;5526;42.070;24.752;2023-08-20T12:42:43;6.47;;;6.03;;
10947;SDS011;5526;42.070;24.752;2023-08-20T12:45:10;6.88;;;6.47;;
10947;SDS011;5526;42.070;24.752;2023-08-20T12:47:38;6.60;;;6.13;;
10947;SDS011;5526;42.070;24.752;2023-08-20T12:50:07;6.57;;;6.20;;
10947;SDS011;5526;42.070;24.752;2023-08-20T12:52:36;6.88;;;6.40;;
10947;SDS011;5526;42.070;24.752;2023-08-20T12:55:03;8.20;;;6.38;;
10947;SDS011;5526;42.070;24.752;2023-08-20T12:57:33;6.70;;;6.10;;
10947;SDS011;5526;42.070;24.752;2023-08-20T13:00:01;6.90;;;6.30;;
10947;SDS011;5526;42.070;24.752;2023-08-20T13:02:37;6.75;;;6.32;;
10947;SDS011;5526;42.070;24.752;2023-08-20T13:05:04;6.75;;;6.35;;
10947;SDS011;5526;42.070;24.752;2023-08-20T13:07:36;6.90;;;6.40;;
10947;SDS011;5526;42.070;24.752;2023-08-20T13:10:04;7.25;;;6.53;;
10947;SDS011;5526;42.070;24.752;2023-08-20T13:12:33;7.38;;;6.60;;
10947;SDS011;5526;42.070;24.752;2023-08-20T13:15:01;7.25;;;6.75;;
10947;SDS011;5526;42.070;24.752;2023-08-20T13:17:29;6.70;;;6.10;;
10947;SDS011;5526;42.070;24.752;2023-08-20T13:19:57;6.40;;;5.97;;
10947;SDS011;5526;42.070;24.752;2023-08-20T13:22:24;6.60;;;6.20;;
10947;SDS011;5526;42.070;24.752;2023-08-20T13:24:53;6.95;;;6.40;;
10947;SDS011;5526;42.070;24.752;2023-08-20T13:27:20;6.82;;;6.43;;
10947;SDS011;5526;42.070;24.752;2023-08-20T13:29:47;6.40;;;6.00;;
10947;SDS011;5526;42.070;24.752;2023-08-20T13:32:14;6.80;;;6.30;;
10947;SDS011;5526;42.070;24.752;2023-08-20T13:34:41;6.97;;;6.47;;
10947;SDS011;5526;42.070;24.752;2023-08-20T13:37:08;6.50;;;6.18;;
10947;SDS011;5526;42.070;24.752;2023-08-20T13:39:35;7.03;;;6.63;;
10947;SDS011;5526;42.070;24.752;2023-08-20T13:42:04;6.30;;;5.90;;
10947;SDS011;5526;42.070;24.752;2023-08-20T13:44:31;6.70;;;6.30;;
10947;SDS011;5526;42.070;24.752;2023-08-20T13:46:58;6.90;;;6.28;;
10947;SDS011;5526;42.070;24.752;2023-08-20T13:49:26;6.90;;;6.30;;
10947;SDS011;5526;42.070;24.752;2023-08-20T13:51:53;6.95;;;6.38;;
10947;SDS011;5526;42.070;24.752;2023-08-20T13:54:20;6.88;;;6.47;;
10947;SDS011;5526;42.070;24.752;2023-08-20T13:56:47;7.03;;;6.43;;
10947;SDS011;5526;42.070;24.752;2023-08-20T13:59:16;6.57;;;6.07;;
10947;SDS011;5526;42.070;24.752;2023-08-20T14:01:43;6.60;;;6.10;;
10947;SDS011;5526;42.070;24.752;2023-08-20T14:04:10;6.95;;;6.45;;
10947;SDS011;5526;42.070;24.752;2023-08-20T14:06:37;6.18;;;5.68;;
10947;SDS011;5526;42.070;24.752;2023-08-20T14:09:04;6.53;;;6.03;;
10947;SDS011;5526;42.070;24.752;2023-08-20T14:11:31;6.18;;;5.65;;
10947;SDS011;5526;42.070;24.752;2023-08-20T14:13:58;6.70;;;6.13;;
10947;SDS011;5526;42.070;24.752;2023-08-20T14:16:27;6.07;;;5.57;;
10947;SDS011;5526;42.070;24.752;2023-08-20T14:18:54;7.22;;;6.15;;
10947;SDS011;5526;42.070;24.752;2023-08-20T14:21:21;6.30;;;6.00;;
10947;SDS011;5526;42.070;24.752;2023-08-20T14:23:49;6.10;;;5.80;;
10947;SDS011;5526;42.070;24.752;2023-08-20T14:26:16;6.20;;;5.60;;
10947;SDS011;5526;42.070;24.752;2023-08-20T14:28:43;6.20;;;5.70;;
10947;SDS011;5526;42.070;24.752;2023-08-20T14:31:10;5.75;;;5.40;;
10947;SDS011;5526;42.070;24.752;2023-08-20T14:33:39;6.28;;;5.45;;
10947;SDS011;5526;42.070;24.752;2023-08-20T14:36:06;5.50;;;5.20;;
10947;SDS011;5526;42.070;24.752;2023-08-20T14:38:33;5.97;;;5.47;;
10947;SDS011;5526;42.070;24.752;2023-08-20T14:41:00;5.88;;;5.47;;
10947;SDS011;5526;42.070;24.752;2023-08-20T14:43:28;6.07;;;5.68;;
10947;SDS011;5526;42.070;24.752;2023-08-20T14:45:56;6.20;;;5.78;;
10947;SDS011;5526;42.070;24.752;2023-08-20T14:48:24;6.35;;;5.75;;
10947;SDS011;5526;42.070;24.752;2023-08-20T14:50:52;6.55;;;6.07;;
10947;SDS011;5526;42.070;24.752;2023-08-20T14:53:19;5.70;;;5.40;;